sensor_id;sensor_type;location;lat;lon;timestamp;noise_LAeq;noise_LA_min;noise_LA_max;noise_LA01;noise_LA95
60503;Laerm;51448;51.660;5.824;2023-02-28T00:01:29;49.38;31.14;60.23;;
60503;Laerm;51448;51.660;5.824;2023-02-28T00:03:57;49.31;31.16;59.69;;
60503;Laerm;51448;51.660;5.824;2023-02-28T00:06:26;50.21;30.77;60.79;;
60503;Laerm;51448;51.660;5.824;2023-02-28T00:08:54;50.18;31.31;61.01;;
60503;Laerm;51448;51.660;5.824;2023-02-28T00:11:22;49.98;31.09;60.54;;
60503;Laerm;51448;51.660;5.824;2023-02-28T00:13:50;49.27;31.30;60.00;;
60503;Laerm;51448;51.660;5.824;2023-02-28T00:16:21;50.13;31.11;60.78;;
60503;Laerm;51448;51.660;5.824;2023-02-28T00:18:50;49.48;29.65;60.47;;
60503;Laerm;51448;51.660;5.824;2023-02-28T00:21:19;50.41;29.23;60.42;;
60503;Laerm;51448;51.660;5.824;2023-02-28T00:23:47;50.42;28.87;60.86;;
60503;Laerm;51448;51.660;5.824;2023-02-28T00:26:15;49.41;29.70;60.33;;
60503;Laerm;51448;51.660;5.824;2023-02-28T00:28:45;50.60;31.65;60.87;;
60503;Laerm;51448;51.660;5.824;2023-02-28T00:31:13;50.68;32.34;61.05;;
60503;Laerm;51448;51.660;5.824;2023-02-28T00:33:40;50.45;31.43;60.89;;
60503;Laerm;51448;51.660;5.824;2023-02-28T00:36:11;50.47;31.59;61.00;;
60503;Laerm;51448;51.660;5.824;2023-02-28T00:38:40;49.25;31.41;59.85;;
60503;Laerm;51448;51.660;5.824;2023-02-28T00:41:08;49.39;31.23;60.09;;
60503;Laerm;51448;51.660;5.824;2023-02-28T00:43:38;49.40;31.03;59.86;;
60503;Laerm;51448;51.660;5.824;2023-02-28T00:46:07;50.31;31.17;61.26;;
60503;Laerm;51448;51.660;5.824;2023-02-28T00:48:35;49.98;31.40;60.93;;
60503;Laerm;51448;51.660;5.824;2023-02-28T00:51:03;49.94;31.38;60.71;;
60503;Laerm;51448;51.660;5.824;2023-02-28T00:53:31;50.61;31.23;61.12;;
60503;Laerm;51448;51.660;5.824;2023-02-28T00:56:00;50.54;31.42;60.88;;
60503;Laerm;51448;51.660;5.824;2023-02-28T00:58:27;49.80;31.30;60.90;;
60503;Laerm;51448;51.660;5.824;2023-02-28T01:00:55;50.57;31.35;61.04;;
60503;Laerm;51448;51.660;5.824;2023-02-28T01:03:23;50.78;31.52;60.93;;
60503;Laerm;51448;51.660;5.824;2023-02-28T01:05:51;50.64;31.24;60.82;;
60503;Laerm;51448;51.660;5.824;2023-02-28T01:08:20;49.67;30.94;60.27;;
60503;Laerm;51448;51.660;5.824;2023-02-28T01:10:48;49.94;31.50;61.04;;
60503;Laerm;51448;51.660;5.824;2023-02-28T01:13:16;49.94;31.23;60.84;;
60503;Laerm;51448;51.660;5.824;2023-02-28T01:15:50;49.28;31.07;60.36;;
60503;Laerm;51448;51.660;5.824;2023-02-28T01:18:19;50.18;31.39;61.34;;
60503;Laerm;51448;51.660;5.824;2023-02-28T01:20:48;51.01;31.48;61.25;;
60503;Laerm;51448;51.660;5.824;2023-02-28T01:23:16;51.12;28.90;61.24;;
60503;Laerm;51448;51.660;5.824;2023-02-28T01:25:44;50.51;28.97;61.58;;
60503;Laerm;51448;51.660;5.824;2023-02-28T01:28:11;50.28;29.10;61.11;;
60503;Laerm;51448;51.660;5.824;2023-02-28T01:30:39;50.98;29.60;61.19;;
60503;Laerm;51448;51.660;5.824;2023-02-28T01:33:06;50.44;31.77;61.30;;
60503;Laerm;51448;51.660;5.824;2023-02-28T01:35:35;51.23;32.40;60.89;;
60503;Laerm;51448;51.660;5.824;2023-02-28T01:38:03;50.63;31.91;60.93;;
60503;Laerm;51448;51.660;5.824;2023-02-28T01:40:48;49.46;31.75;60.74;;
60503;Laerm;51448;51.660;5.824;2023-02-28T01:43:29;50.53;32.05;61.01;;
60503;Laerm;51448;51.660;5.824;2023-02-28T01:45:58;50.32;31.61;61.30;;
60503;Laerm;51448;51.660;5.824;2023-02-28T01:48:32;50.90;31.79;61.19;;
60503;Laerm;51448;51.660;5.824;2023-02-28T01:51:09;50.90;31.62;61.15;;
60503;Laerm;51448;51.660;5.824;2023-02-28T01:53:51;50.80;31.38;62.31;;
60503;Laerm;51448;51.660;5.824;2023-02-28T01:56:26;51.57;31.57;62.74;;
60503;Laerm;51448;51.660;5.824;2023-02-28T01:58:56;49.70;31.82;60.85;;
60503;Laerm;51448;51.660;5.824;2023-02-28T02:01:27;50.36;31.55;61.69;;
60503;Laerm;51448;51.660;5.824;2023-02-28T02:04:00;50.82;31.61;61.30;;
60503;Laerm;51448;51.660;5.824;2023-02-28T02:06:42;50.64;31.49;61.30;;
60503;Laerm;51448;51.660;5.824;2023-02-28T02:09:12;51.01;31.90;61.27;;
60503;Laerm;51448;51.660;5.824;2023-02-28T02:11:42;51.12;31.57;61.15;;
60503;Laerm;51448;51.660;5.824;2023-02-28T02:17:18;50.58;31.48;61.41;;
60503;Laerm;51448;51.660;5.824;2023-02-28T02:35:20;50.03;32.46;61.15;;
60503;Laerm;51448;51.660;5.824;2023-02-28T02:41:04;48.79;31.77;60.35;;
60503;Laerm;51448;51.660;5.824;2023-02-28T02:43:44;49.80;32.37;60.31;;
60503;Laerm;51448;51.660;5.824;2023-02-28T02:46:21;48.91;32.10;60.17;;
60503;Laerm;51448;51.660;5.824;2023-02-28T02:48:57;49.76;32.02;60.84;;
60503;Laerm;51448;51.660;5.824;2023-02-28T02:51:30;51.00;32.87;61.06;;
60503;Laerm;51448;51.660;5.824;2023-02-28T02:54:10;50.57;31.02;61.32;;
60503;Laerm;51448;51.660;5.824;2023-02-28T02:56:46;49.75;31.97;61.04;;
60503;Laerm;51448;51.660;5.824;2023-02-28T02:59:22;50.56;32.14;61.07;;
60503;Laerm;51448;51.660;5.824;2023-02-28T03:02:04;49.53;31.56;60.55;;
60503;Laerm;51448;51.660;5.824;2023-02-28T03:04:42;50.37;31.49;60.92;;
60503;Laerm;51448;51.660;5.824;2023-02-28T03:07:10;49.54;31.38;60.15;;
60503;Laerm;51448;51.660;5.824;2023-02-28T03:09:39;50.70;31.40;60.90;;
60503;Laerm;51448;51.660;5.824;2023-02-28T03:12:12;50.23;31.74;60.92;;
60503;Laerm;51448;51.660;5.824;2023-02-28T03:20:45;48.48;32.07;59.63;;
60503;Laerm;51448;51.660;5.824;2023-02-28T03:23:36;49.95;31.83;60.79;;
60503;Laerm;51448;51.660;5.824;2023-02-28T03:26:19;49.60;28.65;60.80;;
60503;Laerm;51448;51.660;5.824;2023-02-28T03:29:13;49.37;29.14;61.01;;
60503;Laerm;51448;51.660;5.824;2023-02-28T03:32:00;49.70;29.93;60.96;;
60503;Laerm;51448;51.660;5.824;2023-02-28T03:34:43;50.00;31.30;60.76;;
60503;Laerm;51448;51.660;5.824;2023-02-28T03:37:22;49.91;31.52;60.47;;
60503;Laerm;51448;51.660;5.824;2023-02-28T03:40:06;49.00;31.60;60.08;;
60503;Laerm;51448;51.660;5.824;2023-02-28T03:42:39;50.02;31.53;60.71;;
60503;Laerm;51448;51.660;5.824;2023-02-28T03:45:14;49.98;31.77;60.77;;
60503;Laerm;51448;51.660;5.824;2023-02-28T03:47:53;49.86;31.81;60.52;;
60503;Laerm;51448;51.660;5.824;2023-02-28T03:50:28;50.04;32.26;60.60;;
60503;Laerm;51448;51.660;5.824;2023-02-28T03:53:06;50.65;31.72;61.20;;
60503;Laerm;51448;51.660;5.824;2023-02-28T03:55:45;49.30;31.86;59.10;;
60503;Laerm;51448;51.660;5.824;2023-02-28T04:01:05;49.72;31.62;60.43;;
60503;Laerm;51448;51.660;5.824;2023-02-28T04:03:37;49.93;31.83;60.42;;
60503;Laerm;51448;51.660;5.824;2023-02-28T04:06:12;49.56;30.93;60.05;;
60503;Laerm;51448;51.660;5.824;2023-02-28T04:08:41;48.63;31.66;59.18;;
60503;Laerm;51448;51.660;5.824;2023-02-28T04:11:35;47.91;31.93;58.72;;
60503;Laerm;51448;51.660;5.824;2023-02-28T04:14:05;48.51;31.77;58.76;;
60503;Laerm;51448;51.660;5.824;2023-02-28T04:16:36;49.90;31.64;60.30;;
60503;Laerm;51448;51.660;5.824;2023-02-28T04:19:07;50.63;31.80;60.79;;
60503;Laerm;51448;51.660;5.824;2023-02-28T04:21:43;48.48;31.99;59.07;;
60503;Laerm;51448;51.660;5.824;2023-02-28T04:24:15;48.17;31.75;58.58;;
60503;Laerm;51448;51.660;5.824;2023-02-28T04:26:48;49.14;31.77;59.51;;
60503;Laerm;51448;51.660;5.824;2023-02-28T04:29:23;48.67;29.49;58.94;;
60503;Laerm;51448;51.660;5.824;2023-02-28T04:31:53;49.08;29.44;59.85;;
60503;Laerm;51448;51.660;5.824;2023-02-28T04:34:21;51.61;30.42;62.82;;
60503;Laerm;51448;51.660;5.824;2023-02-28T04:36:49;47.81;30.36;57.98;;
60503;Laerm;51448;51.660;5.824;2023-02-28T04:39:36;48.70;31.56;59.83;;
60503;Laerm;51448;51.660;5.824;2023-02-28T04:42:04;47.80;31.09;58.31;;
60503;Laerm;51448;51.660;5.824;2023-02-28T04:44:32;48.95;31.90;59.87;;
60503;Laerm;51448;51.660;5.824;2023-02-28T04:46:59;49.11;31.78;59.01;;
60503;Laerm;51448;51.660;5.824;2023-02-28T04:49:27;51.77;31.74;64.79;;
60503;Laerm;51448;51.660;5.824;2023-02-28T04:51:55;48.82;32.04;58.81;;
60503;Laerm;51448;51.660;5.824;2023-02-28T04:54:23;47.70;31.82;58.38;;
60503;Laerm;51448;51.660;5.824;2023-02-28T04:56:50;47.89;31.87;59.20;;
60503;Laerm;51448;51.660;5.824;2023-02-28T04:59:17;50.09;32.39;64.04;;
60503;Laerm;51448;51.660;5.824;2023-02-28T05:01:48;49.01;32.95;60.49;;
60503;Laerm;51448;51.660;5.824;2023-02-28T05:04:17;51.28;32.91;61.28;;
60503;Laerm;51448;51.660;5.824;2023-02-28T05:06:44;49.11;32.94;59.59;;
60503;Laerm;51448;51.660;5.824;2023-02-28T05:09:12;49.55;32.68;59.48;;
60503;Laerm;51448;51.660;5.824;2023-02-28T05:11:41;50.63;32.74;66.68;;
60503;Laerm;51448;51.660;5.824;2023-02-28T05:14:13;52.11;32.76;61.04;;
60503;Laerm;51448;51.660;5.824;2023-02-28T05:17:05;49.79;33.08;62.19;;
60503;Laerm;51448;51.660;5.824;2023-02-28T05:19:38;49.43;32.93;61.78;;
60503;Laerm;51448;51.660;5.824;2023-02-28T05:22:14;48.64;32.55;58.63;;
60503;Laerm;51448;51.660;5.824;2023-02-28T05:24:44;49.44;33.19;58.79;;
60503;Laerm;51448;51.660;5.824;2023-02-28T05:27:11;49.56;32.96;59.15;;
60503;Laerm;51448;51.660;5.824;2023-02-28T05:29:39;50.47;33.26;60.75;;
60503;Laerm;51448;51.660;5.824;2023-02-28T05:32:13;49.51;34.97;58.71;;
60503;Laerm;51448;51.660;5.824;2023-02-28T05:34:41;51.85;35.18;59.37;;
60503;Laerm;51448;51.660;5.824;2023-02-28T05:37:12;50.83;34.63;63.09;;
60503;Laerm;51448;51.660;5.824;2023-02-28T05:39:40;50.65;34.35;60.68;;
60503;Laerm;51448;51.660;5.824;2023-02-28T05:42:08;52.84;34.36;63.94;;
60503;Laerm;51448;51.660;5.824;2023-02-28T05:44:36;59.88;34.81;81.25;;
60503;Laerm;51448;51.660;5.824;2023-02-28T05:47:04;63.56;34.89;82.96;;
60503;Laerm;51448;51.660;5.824;2023-02-28T05:49:32;57.22;34.97;80.56;;
60503;Laerm;51448;51.660;5.824;2023-02-28T05:52:00;50.57;34.92;58.40;;
60503;Laerm;51448;51.660;5.824;2023-02-28T05:54:27;56.75;33.73;77.68;;
60503;Laerm;51448;51.660;5.824;2023-02-28T05:56:55;55.41;32.97;79.26;;
60503;Laerm;51448;51.660;5.824;2023-02-28T05:59:23;52.18;33.66;64.81;;
60503;Laerm;51448;51.660;5.824;2023-02-28T06:01:53;51.49;33.77;65.06;;
60503;Laerm;51448;51.660;5.824;2023-02-28T06:04:24;50.99;34.46;60.73;;
60503;Laerm;51448;51.660;5.824;2023-02-28T06:06:58;50.85;34.65;61.56;;
60503;Laerm;51448;51.660;5.824;2023-02-28T06:09:26;51.89;34.73;62.22;;
60503;Laerm;51448;51.660;5.824;2023-02-28T06:11:54;52.57;35.17;61.64;;
60503;Laerm;51448;51.660;5.824;2023-02-28T06:14:25;51.12;35.05;64.98;;
60503;Laerm;51448;51.660;5.824;2023-02-28T06:16:53;52.60;36.90;62.44;;
60503;Laerm;51448;51.660;5.824;2023-02-28T06:19:24;50.96;35.78;60.23;;
60503;Laerm;51448;51.660;5.824;2023-02-28T06:21:56;51.80;36.13;62.41;;
60503;Laerm;51448;51.660;5.824;2023-02-28T06:24:26;52.60;35.58;66.91;;
60503;Laerm;51448;51.660;5.824;2023-02-28T06:26:57;52.65;35.57;61.67;;
60503;Laerm;51448;51.660;5.824;2023-02-28T06:29:33;53.12;36.02;70.54;;
60503;Laerm;51448;51.660;5.824;2023-02-28T06:32:02;52.53;34.98;64.04;;
60503;Laerm;51448;51.660;5.824;2023-02-28T06:34:30;50.70;36.05;64.70;;
60503;Laerm;51448;51.660;5.824;2023-02-28T06:36:58;54.18;36.72;63.07;;
60503;Laerm;51448;51.660;5.824;2023-02-28T06:39:30;53.65;41.60;62.24;;
60503;Laerm;51448;51.660;5.824;2023-02-28T06:41:58;54.13;36.67;64.22;;
60503;Laerm;51448;51.660;5.824;2023-02-28T06:44:26;54.80;36.68;67.75;;
60503;Laerm;51448;51.660;5.824;2023-02-28T06:46:53;51.75;35.17;60.15;;
60503;Laerm;51448;51.660;5.824;2023-02-28T06:49:21;53.07;35.35;62.20;;
60503;Laerm;51448;51.660;5.824;2023-02-28T06:51:49;52.37;36.14;64.38;;
60503;Laerm;51448;51.660;5.824;2023-02-28T06:54:17;52.42;36.05;62.13;;
60503;Laerm;51448;51.660;5.824;2023-02-28T06:56:45;54.12;38.48;67.26;;
60503;Laerm;51448;51.660;5.824;2023-02-28T06:59:13;54.85;36.32;69.39;;
60503;Laerm;51448;51.660;5.824;2023-02-28T07:01:40;51.53;36.76;60.31;;
60503;Laerm;51448;51.660;5.824;2023-02-28T07:04:09;52.08;36.79;59.40;;
60503;Laerm;51448;51.660;5.824;2023-02-28T07:06:36;49.30;35.51;62.89;;
60503;Laerm;51448;51.660;5.824;2023-02-28T07:09:08;50.97;35.38;62.92;;
60503;Laerm;51448;51.660;5.824;2023-02-28T07:11:36;46.97;35.30;59.43;;
60503;Laerm;51448;51.660;5.824;2023-02-28T07:14:03;52.61;36.00;63.20;;
60503;Laerm;51448;51.660;5.824;2023-02-28T07:16:31;58.83;35.76;85.11;;
60503;Laerm;51448;51.660;5.824;2023-02-28T07:18:59;63.11;35.42;90.45;;
60503;Laerm;51448;51.660;5.824;2023-02-28T07:21:27;53.76;36.81;67.03;;
60503;Laerm;51448;51.660;5.824;2023-02-28T07:23:55;55.39;34.82;81.23;;
60503;Laerm;51448;51.660;5.824;2023-02-28T07:26:24;49.07;34.64;60.08;;
60503;Laerm;51448;51.660;5.824;2023-02-28T07:28:52;50.66;34.58;61.98;;
60503;Laerm;51448;51.660;5.824;2023-02-28T07:31:20;52.24;35.32;62.23;;
60503;Laerm;51448;51.660;5.824;2023-02-28T07:33:48;50.16;35.09;59.97;;
60503;Laerm;51448;51.660;5.824;2023-02-28T07:36:17;51.61;35.63;61.39;;
60503;Laerm;51448;51.660;5.824;2023-02-28T07:38:47;51.38;35.53;63.21;;
60503;Laerm;51448;51.660;5.824;2023-02-28T07:41:22;52.15;34.38;68.60;;
60503;Laerm;51448;51.660;5.824;2023-02-28T07:43:54;52.71;34.64;71.16;;
60503;Laerm;51448;51.660;5.824;2023-02-28T07:46:23;52.78;36.67;71.00;;
60503;Laerm;51448;51.660;5.824;2023-02-28T07:48:51;48.76;34.09;59.46;;
60503;Laerm;51448;51.660;5.824;2023-02-28T07:51:19;52.61;35.08;72.38;;
60503;Laerm;51448;51.660;5.824;2023-02-28T07:53:48;53.30;33.75;67.53;;
60503;Laerm;51448;51.660;5.824;2023-02-28T07:56:16;51.46;35.22;60.57;;
60503;Laerm;51448;51.660;5.824;2023-02-28T07:58:43;52.02;34.43;76.21;;
60503;Laerm;51448;51.660;5.824;2023-02-28T08:01:11;54.42;34.84;80.78;;
60503;Laerm;51448;51.660;5.824;2023-02-28T08:03:40;55.32;34.26;83.57;;
60503;Laerm;51448;51.660;5.824;2023-02-28T08:06:18;50.83;33.76;69.80;;
60503;Laerm;51448;51.660;5.824;2023-02-28T08:08:47;50.82;33.44;62.27;;
60503;Laerm;51448;51.660;5.824;2023-02-28T08:11:16;49.87;33.56;60.40;;
60503;Laerm;51448;51.660;5.824;2023-02-28T08:13:45;51.32;34.01;60.95;;
60503;Laerm;51448;51.660;5.824;2023-02-28T08:16:14;50.61;33.73;68.74;;
60503;Laerm;51448;51.660;5.824;2023-02-28T08:18:45;48.36;33.24;58.42;;
60503;Laerm;51448;51.660;5.824;2023-02-28T08:21:13;49.09;33.13;58.65;;
60503;Laerm;51448;51.660;5.824;2023-02-28T08:23:40;49.30;33.60;60.16;;
60503;Laerm;51448;51.660;5.824;2023-02-28T08:26:08;51.59;33.78;68.37;;
60503;Laerm;51448;51.660;5.824;2023-02-28T08:28:36;49.40;33.68;65.88;;
60503;Laerm;51448;51.660;5.824;2023-02-28T08:31:09;49.04;33.79;61.33;;
60503;Laerm;51448;51.660;5.824;2023-02-28T08:33:38;51.56;34.73;72.21;;
60503;Laerm;51448;51.660;5.824;2023-02-28T08:36:08;51.29;33.59;73.58;;
60503;Laerm;51448;51.660;5.824;2023-02-28T08:38:37;49.96;33.81;59.86;;
60503;Laerm;51448;51.660;5.824;2023-02-28T08:41:10;51.88;34.31;69.37;;
60503;Laerm;51448;51.660;5.824;2023-02-28T08:43:40;49.29;33.97;58.47;;
60503;Laerm;51448;51.660;5.824;2023-02-28T08:46:12;51.54;33.66;70.82;;
60503;Laerm;51448;51.660;5.824;2023-02-28T08:48:41;50.04;33.56;69.11;;
60503;Laerm;51448;51.660;5.824;2023-02-28T08:51:14;50.18;34.03;64.94;;
60503;Laerm;51448;51.660;5.824;2023-02-28T08:53:44;54.99;34.05;71.60;;
60503;Laerm;51448;51.660;5.824;2023-02-28T08:56:16;65.80;33.95;92.62;;
60503;Laerm;51448;51.660;5.824;2023-02-28T08:58:48;57.56;33.84;86.55;;
60503;Laerm;51448;51.660;5.824;2023-02-28T09:01:26;59.97;33.69;84.43;;
60503;Laerm;51448;51.660;5.824;2023-02-28T09:03:56;49.77;33.33;65.17;;
60503;Laerm;51448;51.660;5.824;2023-02-28T09:06:26;57.83;33.79;87.94;;
60503;Laerm;51448;51.660;5.824;2023-02-28T09:08:59;49.31;34.52;61.46;;
60503;Laerm;51448;51.660;5.824;2023-02-28T09:11:28;50.10;33.98;63.58;;
60503;Laerm;51448;51.660;5.824;2023-02-28T09:13:58;48.35;33.99;62.85;;
60503;Laerm;51448;51.660;5.824;2023-02-28T09:16:27;50.45;33.58;71.66;;
60503;Laerm;51448;51.660;5.824;2023-02-28T09:18:55;47.88;32.08;63.84;;
60503;Laerm;51448;51.660;5.824;2023-02-28T09:21:23;51.34;31.50;74.74;;
60503;Laerm;51448;51.660;5.824;2023-02-28T09:23:52;50.11;33.16;68.81;;
60503;Laerm;51448;51.660;5.824;2023-02-28T09:26:26;47.66;31.39;68.26;;
60503;Laerm;51448;51.660;5.824;2023-02-28T09:29:05;49.90;32.18;67.65;;
60503;Laerm;51448;51.660;5.824;2023-02-28T09:31:32;49.84;31.14;69.98;;
60503;Laerm;51448;51.660;5.824;2023-02-28T09:34:00;48.83;30.73;68.91;;
60503;Laerm;51448;51.660;5.824;2023-02-28T09:36:28;51.31;31.99;76.80;;
60503;Laerm;51448;51.660;5.824;2023-02-28T09:39:11;46.94;30.95;65.71;;
60503;Laerm;51448;51.660;5.824;2023-02-28T09:41:44;49.49;33.19;71.03;;
60503;Laerm;51448;51.660;5.824;2023-02-28T09:44:37;47.85;31.69;61.93;;
60503;Laerm;51448;51.660;5.824;2023-02-28T09:49:51;53.43;33.80;74.61;;
60503;Laerm;51448;51.660;5.824;2023-02-28T09:52:32;54.00;32.48;70.83;;
60503;Laerm;51448;51.660;5.824;2023-02-28T09:55:29;60.54;32.08;87.59;;
60503;Laerm;51448;51.660;5.824;2023-02-28T09:58:23;57.73;33.03;82.13;;
60503;Laerm;51448;51.660;5.824;2023-02-28T10:01:06;51.43;31.57;78.67;;
60503;Laerm;51448;51.660;5.824;2023-02-28T10:03:47;58.43;32.23;81.68;;
60503;Laerm;51448;51.660;5.824;2023-02-28T10:06:22;53.89;31.19;80.43;;
60503;Laerm;51448;51.660;5.824;2023-02-28T10:09:27;47.78;32.50;60.92;;
60503;Laerm;51448;51.660;5.824;2023-02-28T10:12:04;53.31;33.86;72.89;;
60503;Laerm;51448;51.660;5.824;2023-02-28T10:14:34;50.11;33.65;65.52;;
60503;Laerm;51448;51.660;5.824;2023-02-28T10:17:14;47.88;32.42;62.56;;
60503;Laerm;51448;51.660;5.824;2023-02-28T10:20:11;50.69;32.15;74.75;;
60503;Laerm;51448;51.660;5.824;2023-02-28T10:22:59;51.42;32.98;74.58;;
60503;Laerm;51448;51.660;5.824;2023-02-28T10:25:37;52.73;32.91;82.28;;
60503;Laerm;51448;51.660;5.824;2023-02-28T10:28:15;50.22;34.50;69.18;;
60503;Laerm;51448;51.660;5.824;2023-02-28T10:30:49;52.85;32.42;76.62;;
60503;Laerm;51448;51.660;5.824;2023-02-28T10:33:25;49.79;33.36;73.78;;
60503;Laerm;51448;51.660;5.824;2023-02-28T10:35:53;45.60;33.05;58.65;;
60503;Laerm;51448;51.660;5.824;2023-02-28T10:38:34;49.18;31.48;74.95;;
60503;Laerm;51448;51.660;5.824;2023-02-28T10:41:32;49.71;33.27;71.32;;
60503;Laerm;51448;51.660;5.824;2023-02-28T10:44:33;48.09;32.99;69.54;;
60503;Laerm;51448;51.660;5.824;2023-02-28T10:47:00;47.15;32.30;67.56;;
60503;Laerm;51448;51.660;5.824;2023-02-28T10:49:29;49.68;33.73;74.75;;
60503;Laerm;51448;51.660;5.824;2023-02-28T10:52:00;50.35;34.58;75.66;;
60503;Laerm;51448;51.660;5.824;2023-02-28T10:54:34;50.18;33.32;76.62;;
60503;Laerm;51448;51.660;5.824;2023-02-28T10:57:20;51.99;34.95;71.08;;
60503;Laerm;51448;51.660;5.824;2023-02-28T11:00:31;57.20;33.22;82.99;;
60503;Laerm;51448;51.660;5.824;2023-02-28T11:02:59;57.21;32.83;78.40;;
60503;Laerm;51448;51.660;5.824;2023-02-28T11:05:32;57.07;35.51;79.39;;
60503;Laerm;51448;51.660;5.824;2023-02-28T11:08:16;47.40;32.73;72.35;;
60503;Laerm;51448;51.660;5.824;2023-02-28T11:10:58;47.69;34.24;70.09;;
60503;Laerm;51448;51.660;5.824;2023-02-28T11:13:35;45.86;31.94;62.50;;
60503;Laerm;51448;51.660;5.824;2023-02-28T11:16:10;46.75;31.17;58.25;;
60503;Laerm;51448;51.660;5.824;2023-02-28T11:18:54;55.92;32.56;76.49;;
60503;Laerm;51448;51.660;5.824;2023-02-28T11:21:34;60.96;35.49;82.47;;
60503;Laerm;51448;51.660;5.824;2023-02-28T11:26:45;47.99;32.93;68.17;;
60503;Laerm;51448;51.660;5.824;2023-02-28T11:29:30;55.87;32.75;84.24;;
60503;Laerm;51448;51.660;5.824;2023-02-28T11:32:18;52.40;32.26;75.29;;
60503;Laerm;51448;51.660;5.824;2023-02-28T11:35:03;56.59;32.27;78.93;;
60503;Laerm;51448;51.660;5.824;2023-02-28T11:37:32;52.04;32.62;71.52;;
60503;Laerm;51448;51.660;5.824;2023-02-28T11:40:02;59.17;31.87;82.11;;
60503;Laerm;51448;51.660;5.824;2023-02-28T11:42:50;73.24;33.07;96.24;;
60503;Laerm;51448;51.660;5.824;2023-02-28T11:51:34;54.87;31.23;82.41;;
60503;Laerm;51448;51.660;5.824;2023-02-28T11:58:29;54.42;32.25;78.02;;
60503;Laerm;51448;51.660;5.824;2023-02-28T12:01:32;57.03;31.30;86.69;;
60503;Laerm;51448;51.660;5.824;2023-02-28T12:07:03;58.95;31.00;80.74;;
60503;Laerm;51448;51.660;5.824;2023-02-28T12:10:10;53.10;32.28;78.01;;
60503;Laerm;51448;51.660;5.824;2023-02-28T12:19:38;52.74;33.50;77.83;;
60503;Laerm;51448;51.660;5.824;2023-02-28T12:22:41;55.11;32.59;79.57;;
60503;Laerm;51448;51.660;5.824;2023-02-28T12:25:31;64.92;32.07;83.98;;
60503;Laerm;51448;51.660;5.824;2023-02-28T12:28:03;59.18;36.02;81.28;;
60503;Laerm;51448;51.660;5.824;2023-02-28T12:30:35;55.58;35.74;74.77;;
60503;Laerm;51448;51.660;5.824;2023-02-28T12:33:09;60.84;34.18;80.89;;
60503;Laerm;51448;51.660;5.824;2023-02-28T12:36:03;67.83;38.95;88.53;;
60503;Laerm;51448;51.660;5.824;2023-02-28T12:41:44;58.37;35.22;79.34;;
60503;Laerm;51448;51.660;5.824;2023-02-28T12:44:44;55.52;33.57;77.33;;
60503;Laerm;51448;51.660;5.824;2023-02-28T12:47:20;57.89;36.38;74.28;;
60503;Laerm;51448;51.660;5.824;2023-02-28T12:50:06;71.21;36.93;77.10;;
60503;Laerm;51448;51.660;5.824;2023-02-28T12:53:06;72.31;38.26;82.48;;
60503;Laerm;51448;51.660;5.824;2023-02-28T12:58:47;75.97;42.25;82.74;;
60503;Laerm;51448;51.660;5.824;2023-02-28T13:04:52;80.84;74.24;87.39;;
60503;Laerm;51448;51.660;5.824;2023-02-28T13:07:46;81.56;36.96;89.59;;
60503;Laerm;51448;51.660;5.824;2023-02-28T13:10:22;77.82;71.61;89.17;;
60503;Laerm;51448;51.660;5.824;2023-02-28T13:12:53;84.07;72.31;93.69;;
60503;Laerm;51448;51.660;5.824;2023-02-28T13:15:26;83.02;71.77;92.12;;
60503;Laerm;51448;51.660;5.824;2023-02-28T13:17:59;60.43;35.01;79.46;;
60503;Laerm;51448;51.660;5.824;2023-02-28T13:20:34;57.72;34.45;78.16;;
60503;Laerm;51448;51.660;5.824;2023-02-28T13:23:02;52.31;34.25;73.62;;
60503;Laerm;51448;51.660;5.824;2023-02-28T13:28:10;61.01;33.95;81.98;;
60503;Laerm;51448;51.660;5.824;2023-02-28T13:33:36;63.90;36.16;89.15;;
60503;Laerm;51448;51.660;5.824;2023-02-28T13:36:26;62.77;36.32;86.78;;
60503;Laerm;51448;51.660;5.824;2023-02-28T13:45:23;78.01;69.87;84.50;;
60503;Laerm;51448;51.660;5.824;2023-02-28T13:50:36;83.08;69.52;92.00;;
60503;Laerm;51448;51.660;5.824;2023-02-28T13:56:10;80.04;32.22;89.47;;
60503;Laerm;51448;51.660;5.824;2023-02-28T14:05:00;77.31;72.71;85.59;;
60503;Laerm;51448;51.660;5.824;2023-02-28T14:07:49;76.35;41.05;89.79;;
60503;Laerm;51448;51.660;5.824;2023-02-28T14:10:26;82.54;68.86;89.49;;
60503;Laerm;51448;51.660;5.824;2023-02-28T14:13:13;72.13;38.47;87.13;;
60503;Laerm;51448;51.660;5.824;2023-02-28T14:15:48;75.99;68.93;87.54;;
60503;Laerm;51448;51.660;5.824;2023-02-28T14:18:33;71.75;38.72;96.00;;
60503;Laerm;51448;51.660;5.824;2023-02-28T14:27:00;68.25;35.81;82.45;;
60503;Laerm;51448;51.660;5.824;2023-02-28T14:30:07;63.77;46.87;83.03;;
60503;Laerm;51448;51.660;5.824;2023-02-28T14:33:13;70.95;46.35;87.61;;
60503;Laerm;51448;51.660;5.824;2023-02-28T14:38:47;70.38;36.26;88.85;;
60503;Laerm;51448;51.660;5.824;2023-02-28T14:41:32;59.69;35.30;83.58;;
60503;Laerm;51448;51.660;5.824;2023-02-28T14:46:47;69.10;35.49;86.88;;
60503;Laerm;51448;51.660;5.824;2023-02-28T14:49:26;57.22;45.74;88.30;;
60503;Laerm;51448;51.660;5.824;2023-02-28T14:54:52;57.25;31.61;78.55;;
60503;Laerm;51448;51.660;5.824;2023-02-28T14:57:34;58.23;33.43;81.28;;
60503;Laerm;51448;51.660;5.824;2023-02-28T15:00:20;52.98;32.55;72.54;;
60503;Laerm;51448;51.660;5.824;2023-02-28T15:02:49;56.75;33.68;77.61;;
60503;Laerm;51448;51.660;5.824;2023-02-28T15:05:31;57.49;33.55;78.84;;
60503;Laerm;51448;51.660;5.824;2023-02-28T15:08:15;49.10;33.73;70.18;;
60503;Laerm;51448;51.660;5.824;2023-02-28T15:11:14;49.38;32.15;69.73;;
60503;Laerm;51448;51.660;5.824;2023-02-28T15:13:50;50.27;34.47;66.52;;
60503;Laerm;51448;51.660;5.824;2023-02-28T15:16:38;56.63;31.95;79.80;;
60503;Laerm;51448;51.660;5.824;2023-02-28T15:19:24;56.34;32.11;80.87;;
60503;Laerm;51448;51.660;5.824;2023-02-28T15:22:23;69.46;38.68;85.20;;
60503;Laerm;51448;51.660;5.824;2023-02-28T15:24:53;58.88;34.73;79.18;;
60503;Laerm;51448;51.660;5.824;2023-02-28T15:27:26;60.38;36.91;81.22;;
60503;Laerm;51448;51.660;5.824;2023-02-28T15:29:59;52.28;34.19;75.30;;
60503;Laerm;51448;51.660;5.824;2023-02-28T15:32:35;55.96;32.05;74.32;;
60503;Laerm;51448;51.660;5.824;2023-02-28T15:38:26;61.79;34.81;82.77;;
60503;Laerm;51448;51.660;5.824;2023-02-28T15:40:57;57.65;33.66;75.84;;
60503;Laerm;51448;51.660;5.824;2023-02-28T15:43:33;59.90;33.98;79.38;;
60503;Laerm;51448;51.660;5.824;2023-02-28T15:46:09;65.14;37.54;85.49;;
60503;Laerm;51448;51.660;5.824;2023-02-28T15:48:53;69.66;40.62;93.04;;
60503;Laerm;51448;51.660;5.824;2023-02-28T15:51:36;73.85;34.10;97.22;;
60503;Laerm;51448;51.660;5.824;2023-02-28T15:54:08;70.46;34.81;96.01;;
60503;Laerm;51448;51.660;5.824;2023-02-28T15:59:23;57.42;34.87;80.54;;
60503;Laerm;51448;51.660;5.824;2023-02-28T16:02:19;55.64;35.77;75.71;;
60503;Laerm;51448;51.660;5.824;2023-02-28T16:05:29;58.74;33.02;85.51;;
60503;Laerm;51448;51.660;5.824;2023-02-28T16:08:15;56.29;34.40;77.65;;
60503;Laerm;51448;51.660;5.824;2023-02-28T16:10:43;73.47;40.31;87.33;;
60503;Laerm;51448;51.660;5.824;2023-02-28T16:13:12;56.17;35.44;77.21;;
60503;Laerm;51448;51.660;5.824;2023-02-28T16:15:43;50.61;35.92;77.02;;